createdAt,value
2023-04-07T00:00:32.455Z,101615.03
2023-04-07T00:03:35.783Z,101618.94
2023-04-07T00:06:38.741Z,101609.66
2023-04-07T00:09:42.025Z,101615.72
2023-04-07T00:12:46.850Z,101613.28
2023-04-07T00:15:49.629Z,101617.81
2023-04-07T00:18:52.605Z,101613.19
2023-04-07T00:21:56.268Z,101616.78
2023-04-07T00:24:59.009Z,101623.03
2023-04-07T00:28:03.636Z,101623.28
2023-04-07T00:31:06.561Z,101607.34
2023-04-07T00:34:10.084Z,101611.53
2023-04-07T00:37:13.003Z,101615.41
2023-04-07T00:40:15.750Z,101608.81
2023-04-07T00:43:19.991Z,101609.94
2023-04-07T00:46:24.620Z,101612.38
2023-04-07T00:49:28.467Z,101607.09
2023-04-07T00:52:31.922Z,101610.50
2023-04-07T00:55:34.622Z,101609.19
2023-04-07T00:58:38.833Z,101599.50
2023-04-07T01:01:47.825Z,101602.28
2023-04-07T01:04:55.850Z,101598.22
2023-04-07T01:08:05.316Z,101605.03
2023-04-07T01:11:15.618Z,101603.00
2023-04-07T01:14:20.633Z,101591.47
2023-04-07T01:17:26.736Z,101591.34
2023-04-07T01:20:35.042Z,101585.38
2023-04-07T01:24:02.530Z,101578.63
2023-04-07T01:27:15.245Z,101574.97
2023-04-07T01:30:20.753Z,101572.75
2023-04-07T01:33:24.409Z,101576.50
2023-04-07T01:36:29.482Z,101579.75
2023-04-07T01:39:34.646Z,101578.47
2023-04-07T01:42:40.255Z,101578.00
2023-04-07T01:45:45.904Z,101574.75
2023-04-07T01:48:50.334Z,101587.34
2023-04-07T01:51:54.056Z,101578.81
2023-04-07T01:54:57.846Z,101577.72
2023-04-07T01:58:05.662Z,101578.00
2023-04-07T02:01:09.939Z,101573.13
2023-04-07T02:04:16.959Z,101572.94
2023-04-07T02:07:22.075Z,101577.91
2023-04-07T02:10:26.816Z,101580.34
2023-04-07T02:13:31.271Z,101572.56
2023-04-07T02:16:37.161Z,101578.66
2023-04-07T02:19:40.727Z,101565.97
2023-04-07T02:22:44.906Z,101567.81
2023-04-07T02:25:48.624Z,101559.97
2023-04-07T02:28:51.316Z,101566.31
2023-04-07T02:31:56.989Z,101563.25
2023-04-07T02:34:59.821Z,101565.47
2023-04-07T02:38:02.649Z,101560.81
2023-04-07T02:41:06.667Z,101561.53
2023-04-07T02:44:09.455Z,101558.09
2023-04-07T02:47:13.693Z,101553.41
2023-04-07T02:50:18.843Z,101557.44
2023-04-07T02:53:21.898Z,101558.34
2023-04-07T02:56:24.778Z,101566.41
2023-04-07T02:59:27.783Z,101557.78
2023-04-07T03:02:32.170Z,101553.31
2023-04-07T03:05:35.050Z,101550.78
2023-04-07T03:08:37.988Z,101548.59
2023-04-07T03:11:41.631Z,101552.91
2023-04-07T03:14:44.601Z,101554.88
2023-04-07T03:17:48.887Z,101554.97
2023-04-07T03:20:52.881Z,101549.13
2023-04-07T03:23:56.058Z,101549.66
2023-04-07T03:26:58.974Z,101554.28
2023-04-07T03:30:01.699Z,101545.72
2023-04-07T03:33:06.157Z,101537.50
2023-04-07T03:36:09.368Z,101544.53
2023-04-07T03:39:12.566Z,101539.44
2023-04-07T03:42:15.622Z,101542.06
2023-04-07T03:45:18.761Z,101545.25
2023-04-07T03:48:23.227Z,101542.47
2023-04-07T03:51:27.557Z,101535.38
2023-04-07T03:54:30.532Z,101536.66
2023-04-07T03:57:33.233Z,101536.81
2023-04-07T04:00:36.009Z,101538.19
2023-04-07T04:03:40.559Z,101543.41
2023-04-07T04:06:43.382Z,101538.56
2023-04-07T04:09:46.423Z,101539.03
2023-04-07T04:12:50.501Z,101550.41
2023-04-07T04:15:53.540Z,101540.78
2023-04-07T04:18:57.939Z,101544.16
2023-04-07T04:22:00.752Z,101545.19
2023-04-07T04:25:04.287Z,101545.78
2023-04-07T04:28:07.740Z,101540.47
2023-04-07T04:31:10.567Z,101541.00
2023-04-07T04:34:14.784Z,101541.53
2023-04-07T04:37:17.520Z,101546.22
2023-04-07T04:40:20.924Z,101546.16
2023-04-07T04:43:23.780Z,101549.34
2023-04-07T04:46:27.292Z,101544.34
2023-04-07T04:49:31.555Z,101549.00
2023-04-07T04:52:34.389Z,101551.63
2023-04-07T04:55:37.334Z,101553.50
2023-04-07T04:58:42.128Z,101547.97
2023-04-07T05:01:45.860Z,101561.44
2023-04-07T05:04:50.336Z,101555.91
2023-04-07T05:07:53.262Z,101553.00
2023-04-07T05:10:56.198Z,101552.25
2023-04-07T05:13:59.383Z,101556.34
2023-04-07T05:17:02.132Z,101557.03
2023-04-07T05:20:07.865Z,101556.28
2023-04-07T05:23:10.685Z,101567.06
2023-04-07T05:26:13.364Z,101565.97
2023-04-07T05:29:16.375Z,101570.88
2023-04-07T05:32:20.274Z,101560.53
2023-04-07T05:35:24.424Z,101554.91
2023-04-07T05:38:27.425Z,101561.00
2023-04-07T05:41:30.587Z,101554.25
2023-04-07T05:44:33.884Z,101552.09
2023-04-07T05:47:36.901Z,101554.41
2023-04-07T05:50:42.226Z,101555.34
2023-04-07T05:53:45.027Z,101554.59
2023-04-07T05:56:48.479Z,101553.25
2023-04-07T05:59:51.387Z,101548.63
2023-04-07T06:02:54.285Z,101553.97
2023-04-07T06:05:59.428Z,101566.34
2023-04-07T06:09:02.393Z,101565.28
2023-04-07T06:12:06.834Z,101566.38
2023-04-07T06:15:10.474Z,101569.00
2023-04-07T06:18:13.195Z,101564.63
2023-04-07T06:21:17.358Z,101572.47
2023-04-07T06:24:22.631Z,101577.25
2023-04-07T06:27:25.578Z,101573.59
2023-04-07T06:30:28.518Z,101577.72
2023-04-07T06:33:31.485Z,101572.91
2023-04-07T06:36:36.211Z,101567.91
2023-04-07T06:39:39.289Z,101570.69
2023-04-07T06:42:42.000Z,101572.22
2023-04-07T06:45:45.028Z,101574.09
2023-04-07T06:48:47.806Z,101574.41
2023-04-07T06:51:52.289Z,101570.59
2023-04-07T06:54:55.134Z,101568.16
2023-04-07T06:57:58.196Z,101568.91
2023-04-07T07:01:01.982Z,101565.38
2023-04-07T07:04:05.874Z,101574.84
2023-04-07T07:07:11.230Z,101572.97
2023-04-07T07:10:14.159Z,101572.34
2023-04-07T07:13:16.921Z,101575.91
2023-04-07T07:16:20.269Z,101576.03
2023-04-07T07:19:23.434Z,101579.41
2023-04-07T07:22:27.973Z,101584.44
2023-04-07T07:25:30.767Z,101587.34
2023-04-07T07:28:33.501Z,101580.97
2023-04-07T07:31:36.482Z,101584.06
2023-04-07T07:34:39.478Z,101582.38
2023-04-07T07:37:45.251Z,101584.72
2023-04-07T07:40:48.274Z,101586.00
2023-04-07T07:43:51.277Z,101594.38
2023-04-07T07:46:54.090Z,101597.31
2023-04-07T07:49:57.045Z,101594.78
2023-04-07T07:53:01.368Z,101598.94
2023-04-07T07:56:04.599Z,101594.75
2023-04-07T07:59:07.418Z,101594.25
2023-04-07T08:02:10.869Z,101600.41
2023-04-07T08:05:13.940Z,101601.94
2023-04-07T08:08:18.295Z,101602.66
2023-04-07T08:11:21.404Z,101590.31
2023-04-07T08:14:24.497Z,101593.72
2023-04-07T08:17:27.383Z,101587.31
2023-04-07T08:20:30.394Z,101589.38
2023-04-07T08:23:34.785Z,101601.63
2023-04-07T08:26:37.574Z,101595.53
2023-04-07T08:29:40.330Z,101609.53
2023-04-07T08:32:46.449Z,101599.66
2023-04-07T08:35:49.276Z,101607.69
2023-04-07T08:38:53.606Z,101602.38
2023-04-07T08:41:57.022Z,101608.00
2023-04-07T08:45:05.200Z,101599.03
2023-04-07T08:48:16.667Z,101602.50
2023-04-07T08:51:28.504Z,101599.94
2023-04-07T08:54:33.962Z,101599.63
2023-04-07T08:57:39.096Z,101610.22
2023-04-07T09:00:42.951Z,101609.88
2023-04-07T09:03:46.984Z,101603.06
2023-04-07T09:06:51.947Z,101609.78
2023-04-07T09:09:57.242Z,101610.41
2023-04-07T09:13:00.267Z,101619.59
2023-04-07T09:16:04.507Z,101620.72
2023-04-07T09:19:07.867Z,101622.97
2023-04-07T09:22:14.896Z,101632.88
2023-04-07T09:25:22.951Z,101617.88
2023-04-07T09:28:26.544Z,101622.34
2023-04-07T09:31:47.411Z,101610.91
2023-04-07T09:35:00.546Z,101618.63
2023-04-07T09:38:05.783Z,101621.56
2023-04-07T09:41:12.640Z,101614.84
2023-04-07T09:44:17.078Z,101618.84
2023-04-07T09:47:27.580Z,101631.69
2023-04-07T09:50:35.286Z,101631.13
2023-04-07T09:53:46.479Z,101636.63
2023-04-07T09:56:51.208Z,101633.66
2023-04-07T09:59:57.150Z,101636.78
2023-04-07T10:03:00.891Z,101631.38
2023-04-07T10:06:04.544Z,101623.69
2023-04-07T10:09:08.241Z,101628.25
2023-04-07T10:12:12.871Z,101633.81
2023-04-07T10:15:16.606Z,101623.50
2023-04-07T10:18:21.748Z,101630.56
2023-04-07T10:21:24.611Z,101626.34
2023-04-07T10:24:47.093Z,101622.97
2023-04-07T10:28:01.240Z,101623.66
2023-04-07T10:31:04.845Z,101635.72
2023-04-07T10:34:07.663Z,101634.78
2023-04-07T10:37:14.114Z,101636.31
2023-04-07T10:40:29.832Z,101629.94
2023-04-07T10:43:40.789Z,101636.69
2023-04-07T10:47:10.841Z,101635.13
2023-04-07T10:50:21.525Z,101631.31
2023-04-07T10:53:24.532Z,101635.72
2023-04-07T10:56:27.993Z,101633.19
2023-04-07T10:59:33.024Z,101623.38
2023-04-07T11:02:36.796Z,101629.09
2023-04-07T11:05:40.347Z,101625.50
2023-04-07T11:08:47.407Z,101625.91
2023-04-07T11:11:52.484Z,101624.56
2023-04-07T11:14:59.772Z,101632.34
2023-04-07T11:18:24.588Z,101630.03
2023-04-07T11:21:27.830Z,101631.22
2023-04-07T11:24:33.335Z,101638.19
2023-04-07T11:27:36.279Z,101632.75
2023-04-07T11:30:46.056Z,101633.59
2023-04-07T11:33:54.608Z,101627.47
2023-04-07T11:36:59.650Z,101626.63
2023-04-07T11:40:02.909Z,101627.19
2023-04-07T11:43:18.091Z,101624.84
2023-04-07T11:46:23.777Z,101622.91
2023-04-07T11:49:29.267Z,101624.63
2023-04-07T11:52:42.284Z,101617.19
2023-04-07T11:55:45.390Z,101622.34
2023-04-07T11:58:49.335Z,101627.22
2023-04-07T12:01:57.129Z,101625.75
2023-04-07T12:05:01.247Z,101627.88
2023-04-07T12:08:04.841Z,101628.91
2023-04-07T12:11:09.227Z,101621.75
2023-04-07T12:14:12.087Z,101628.66
2023-04-07T12:17:23.820Z,101631.41
2023-04-07T12:20:26.694Z,101630.38
2023-04-07T12:23:29.939Z,101624.31
2023-04-07T12:26:33.162Z,101625.53
2023-04-07T12:29:37.153Z,101625.13
2023-04-07T12:32:41.781Z,101627.41
2023-04-07T12:35:45.289Z,101628.22
2023-04-07T12:38:48.305Z,101618.19
2023-04-07T12:41:53.279Z,101621.13
2023-04-07T12:44:58.717Z,101621.75
2023-04-07T12:48:04.034Z,101623.44
2023-04-07T12:51:07.088Z,101629.50
2023-04-07T12:54:10.051Z,101619.59
2023-04-07T12:57:13.421Z,101623.56
2023-04-07T13:00:16.745Z,101626.50
2023-04-07T13:03:22.919Z,101620.66
2023-04-07T13:06:26.893Z,101629.31
2023-04-07T13:09:30.388Z,101617.13
2023-04-07T13:12:34.023Z,101618.59
2023-04-07T13:15:37.366Z,101613.13
2023-04-07T13:18:41.730Z,101608.72
2023-04-07T13:21:47.254Z,101618.41
2023-04-07T13:24:50.875Z,101619.66
2023-04-07T13:27:53.775Z,101618.66
2023-04-07T13:30:57.131Z,101613.63
2023-04-07T13:34:01.906Z,101617.38
2023-04-07T13:37:05.486Z,101617.84
2023-04-07T13:40:09.984Z,101610.47
2023-04-07T13:43:13.104Z,101613.38
2023-04-07T13:46:28.069Z,101608.91
2023-04-07T13:49:33.141Z,101612.50
2023-04-07T13:52:36.658Z,101610.63
2023-04-07T13:55:40.086Z,101603.47
2023-04-07T13:58:43.255Z,101609.78
2023-04-07T14:01:46.561Z,101603.25
2023-04-07T14:04:50.810Z,101593.84
2023-04-07T14:07:54.547Z,101598.28
2023-04-07T14:10:57.341Z,101595.94
2023-04-07T14:14:00.499Z,101601.59
2023-04-07T14:17:04.386Z,101601.81
2023-04-07T14:20:11.988Z,101600.56
2023-04-07T14:23:18.656Z,101593.00
2023-04-07T14:26:29.234Z,101598.25
2023-04-07T14:29:32.426Z,101597.44
2023-04-07T14:32:35.517Z,101596.38
2023-04-07T14:35:40.263Z,101600.63
2023-04-07T14:38:43.371Z,101599.34
2023-04-07T14:41:47.768Z,101600.00
2023-04-07T14:44:51.380Z,101597.88
2023-04-07T14:47:54.389Z,101598.28
2023-04-07T14:51:08.896Z,101596.22
2023-04-07T14:54:12.946Z,101596.38
2023-04-07T14:57:16.407Z,101588.84
2023-04-07T15:00:19.518Z,101594.94
2023-04-07T15:03:23.543Z,101600.16
2023-04-07T15:06:28.250Z,101597.66
2023-04-07T15:09:31.229Z,101601.03
2023-04-07T15:12:34.200Z,101597.25
2023-04-07T15:15:37.249Z,101597.88
2023-04-07T15:18:41.933Z,101602.94
2023-04-07T15:21:46.516Z,101604.84
2023-04-07T15:24:49.390Z,101594.97
2023-04-07T15:27:52.555Z,101601.03
2023-04-07T15:30:56.423Z,101599.53
2023-04-07T15:33:59.201Z,101604.84
2023-04-07T15:37:04.108Z,101598.09
2023-04-07T15:40:08.534Z,101598.09
2023-04-07T15:43:13.931Z,101594.75
2023-04-07T15:46:17.174Z,101598.94
2023-04-07T15:49:24.243Z,101599.97
2023-04-07T15:52:30.071Z,101606.47
2023-04-07T15:55:33.246Z,101596.41
2023-04-07T15:58:36.212Z,101591.56
2023-04-07T16:01:39.449Z,101595.59
2023-04-07T16:04:42.994Z,101597.91
2023-04-07T16:07:47.706Z,101598.31
2023-04-07T16:10:50.387Z,101599.56
2023-04-07T16:13:53.099Z,101600.41
2023-04-07T16:16:58.669Z,101604.44
2023-04-07T16:20:02.002Z,101604.66
2023-04-07T16:23:07.273Z,101597.09
2023-04-07T16:26:11.039Z,101605.69
2023-04-07T16:29:13.898Z,101605.25
2023-04-07T16:32:16.567Z,101601.50
2023-04-07T16:35:19.619Z,101602.34
2023-04-07T16:38:24.109Z,101603.97
2023-04-07T16:41:27.424Z,101614.91
2023-04-07T16:44:30.342Z,101603.81
2023-04-07T16:47:33.773Z,101603.59
2023-04-07T16:50:37.373Z,101606.50
2023-04-07T16:53:41.605Z,101606.72
2023-04-07T16:56:44.504Z,101608.19
2023-04-07T16:59:48.449Z,101616.16
2023-04-07T17:02:51.314Z,101614.69
2023-04-07T17:05:54.211Z,101621.41
2023-04-07T17:08:58.341Z,101610.09
2023-04-07T17:12:02.213Z,101625.19
2023-04-07T17:15:05.877Z,101609.88
2023-04-07T17:18:08.689Z,101617.84
2023-04-07T17:21:12.220Z,101622.69
2023-04-07T17:24:17.591Z,101621.00
2023-04-07T17:27:20.598Z,101626.84
2023-04-07T17:30:23.298Z,101628.53
2023-04-07T17:33:33.653Z,101628.53
2023-04-07T17:36:37.543Z,101631.91
2023-04-07T17:39:41.981Z,101630.63
2023-04-07T17:42:44.667Z,101634.22
2023-04-07T17:45:47.496Z,101638.84
2023-04-07T17:48:51.713Z,101641.13
2023-04-07T17:51:55.445Z,101644.91
2023-04-07T17:54:59.883Z,101652.06
2023-04-07T17:58:02.897Z,101656.88
2023-04-07T18:01:06.057Z,101658.97
2023-04-07T18:04:09.171Z,101650.38
2023-04-07T18:07:13.529Z,101656.03
2023-04-07T18:10:18.364Z,101660.44
2023-04-07T18:13:21.433Z,101666.09
2023-04-07T18:16:26.357Z,101660.63
2023-04-07T18:19:31.155Z,101670.50
2023-04-07T18:22:34.378Z,101667.97
2023-04-07T18:25:39.493Z,101669.63
2023-04-07T18:28:42.237Z,101666.94
2023-04-07T18:31:45.239Z,101670.25
2023-04-07T18:34:48.802Z,101666.50
2023-04-07T18:37:52.030Z,101669.66
2023-04-07T18:40:56.701Z,101676.75
2023-04-07T18:43:59.712Z,101676.94
2023-04-07T18:47:02.908Z,101676.56
2023-04-07T18:50:07.172Z,101684.06
2023-04-07T18:53:10.549Z,101688.94
2023-04-07T18:56:14.936Z,101691.22
2023-04-07T18:59:18.036Z,101694.38
2023-04-07T19:02:21.030Z,101691.84
2023-04-07T19:05:25.827Z,101697.69
2023-04-07T19:08:29.085Z,101701.66
2023-04-07T19:11:33.195Z,101710.91
2023-04-07T19:14:36.126Z,101714.72
2023-04-07T19:17:41.008Z,101711.09
2023-04-07T19:20:44.525Z,101721.09
2023-04-07T19:23:47.788Z,101714.47
2023-04-07T19:26:52.643Z,101720.50
2023-04-07T19:29:55.405Z,101717.38
2023-04-07T19:32:58.314Z,101712.09
2023-04-07T19:36:01.449Z,101717.75
2023-04-07T19:39:05.429Z,101719.84
2023-04-07T19:42:09.640Z,101724.06
2023-04-07T19:45:13.135Z,101720.94
2023-04-07T19:48:17.265Z,101717.88
2023-04-07T19:51:20.801Z,101718.97
2023-04-07T19:54:23.657Z,101717.72
2023-04-07T19:57:28.568Z,101723.97
2023-04-07T20:00:33.112Z,101718.34
2023-04-07T20:03:39.602Z,101720.00
2023-04-07T20:06:42.903Z,101721.47
2023-04-07T20:09:46.047Z,101726.94
2023-04-07T20:12:51.793Z,101720.66
2023-04-07T20:15:55.601Z,101718.34
2023-04-07T20:18:58.415Z,101723.59
2023-04-07T20:22:01.136Z,101718.97
2023-04-07T20:25:05.474Z,101714.38
2023-04-07T20:28:09.874Z,101709.75
2023-04-07T20:31:12.628Z,101701.97
2023-04-07T20:34:16.436Z,101708.50
2023-04-07T20:37:19.511Z,101699.44
2023-04-07T20:40:22.639Z,101708.47
2023-04-07T20:43:27.084Z,101710.59
2023-04-07T20:46:29.953Z,101717.94
2023-04-07T20:49:33.179Z,101712.69
2023-04-07T20:52:39.461Z,101726.75
2023-04-07T20:55:42.441Z,101720.66
2023-04-07T20:58:48.363Z,101727.16
2023-04-07T21:01:51.992Z,101728.22
2023-04-07T21:04:54.888Z,101731.16
2023-04-07T21:07:58.089Z,101725.28
2023-04-07T21:11:01.343Z,101725.69
2023-04-07T21:14:08.826Z,101718.34
2023-04-07T21:17:11.572Z,101718.94
2023-04-07T21:20:14.528Z,101721.47
2023-04-07T21:23:17.961Z,101727.81
2023-04-07T21:26:21.278Z,101725.47
2023-04-07T21:29:25.724Z,101724.00
2023-04-07T21:32:28.533Z,101722.13
2023-04-07T21:35:31.649Z,101722.97
2023-04-07T21:38:34.403Z,101715.44
2023-04-07T21:41:37.395Z,101721.50
2023-04-07T21:44:42.237Z,101725.50
2023-04-07T21:47:45.309Z,101723.81
2023-04-07T21:50:49.085Z,101727.59
2023-04-07T21:53:52.319Z,101727.38
2023-04-07T21:56:55.487Z,101727.59
2023-04-07T22:00:00.046Z,101716.44
2023-04-07T22:03:02.926Z,101729.69
2023-04-07T22:06:07.450Z,101716.03
2023-04-07T22:09:11.106Z,101710.78
2023-04-07T22:12:13.986Z,101708.06
2023-04-07T22:15:18.620Z,101718.56
2023-04-07T22:18:22.222Z,101716.00
2023-04-07T22:21:25.297Z,101713.72
2023-04-07T22:24:27.999Z,101706.16
2023-04-07T22:27:31.116Z,101722.09
2023-04-07T22:30:35.955Z,101718.72
2023-04-07T22:33:38.784Z,101719.41
2023-04-07T22:36:41.569Z,101711.81
2023-04-07T22:39:46.253Z,101715.16
2023-04-07T22:42:49.511Z,101706.34
2023-04-07T22:45:53.789Z,101718.34
2023-04-07T22:48:56.522Z,101711.63
2023-04-07T22:51:59.556Z,101711.84
2023-04-07T22:55:02.641Z,101709.53
2023-04-07T22:58:05.937Z,101727.56
2023-04-07T23:01:10.389Z,101721.47
2023-04-07T23:04:14.788Z,101717.91
2023-04-07T23:07:17.665Z,101721.66
2023-04-07T23:10:20.703Z,101722.75
2023-04-07T23:13:24.061Z,101726.69
2023-04-07T23:16:30.127Z,101735.72
2023-04-07T23:19:33.041Z,101738.78
2023-04-07T23:22:36.018Z,101736.53
2023-04-07T23:25:38.776Z,101739.50
2023-04-07T23:28:41.674Z,101729.84
2023-04-07T23:31:46.011Z,101736.97
2023-04-07T23:34:48.754Z,101731.53
2023-04-07T23:41:12.486Z,101719.16
2023-04-07T23:44:15.709Z,101711.84
2023-04-07T23:47:20.583Z,101718.53
2023-04-07T23:50:23.365Z,101720.03
2023-04-07T23:53:26.356Z,101714.34
2023-04-07T23:56:30.007Z,101715.00
2023-04-07T23:59:32.877Z,101720.84
